Thunder radar more information blitzortung!


Radar de pluja more information rain snow radar


Visita la nostra xarxa de llocs de meteo:

Template documentation
and downloads

And another site



No particular awareness of the weather is required.    There are no Weather-warnings

Pagina Historial Weather Underground text

Diari Resum May 6, 2017 Unitats:  Mètric    Imperial   Tant
« Previous Dia
SegĂźent Dia »
Diari Setmana Mensual Anual Personalitzada
  Maxima: Minima: Media:
Temperatura: -17.8 °C -11.3 °C -6.5 °C
Punt de rosada: -17.8 °C -17.2 °C -14.2 °C
Humitat: Humidity % 22 % 43 %
Wind Speed: 0 km/h 0 km/h 15.4 km/h
RĂ fegues de vent: 0 km/h - -
Vent:- - SSW
Pression baro: 0 hPa 34198.6 hPa -
Precipitacions: 0 mm    
Historical Graphs
 
 
Dades de taula per May 6, 2017
Temps Temperatura Punt de rosada Pression baro Vent Wind Speed RĂ fegues de vent Humitat Rainfall Rate (Hourly)
-17.8 °C -17.8 °C 0 hPa Calm     Humidity % 0 mm
00:04 -8.9 °C -13.9 °C 34222.3 hPa East 9 km/h 9 km/h 55 % 0 mm
00:05 -10.1 °C -13.5 °C 34198.6 hPa WSW 7.7 km/h 10.3 km/h 66 % 0 mm
00:15 -9.8 °C -13.3 °C 34198.6 hPa West 15.6 km/h 28.5 km/h 66 % 0 mm
00:25 -9.8 °C -13.4 °C 34198.6 hPa WSW 7.7 km/h 12.9 km/h 65 % 0 mm
00:35 -9.8 °C -13.4 °C 34198.6 hPa West 2.6 km/h 12.9 km/h 65 % 0 mm
00:45 -9.8 °C -13.4 °C 34198.6 hPa West 5.1 km/h 7.7 km/h 65 % 0 mm
00:55 -9.8 °C -13.4 °C 34198.6 hPa WSW 7.7 km/h 10.3 km/h 65 % 0 mm
01:05 -9.8 °C -13.3 °C 34198.6 hPa WSW 2.6 km/h 5.1 km/h 66 % 0 mm
01:15 -9.7 °C -13.2 °C 34198.6 hPa WSW 5.1 km/h 10.3 km/h 66 % 0 mm
01:25 -9.7 °C -13 °C 34198.6 hPa WSW 5.1 km/h 15.6 km/h 67 % 0 mm
01:35 -9.6 °C -12.9 °C 34198.6 hPa WSW 15.6 km/h 18.2 km/h 68 % 0 mm
01:45 -9.6 °C -12.8 °C 34198.6 hPa WSW 5.1 km/h 12.9 km/h 68 % 0 mm
01:55 -9.7 °C -12.9 °C 34198.6 hPa WSW 5.1 km/h 7.7 km/h 68 % 0 mm
02:05 -9.8 °C -13 °C 34198.6 hPa WSW 5.1 km/h 5.1 km/h 68 % 0 mm
02:15 -9.8 °C -13.1 °C 34198.6 hPa SW 5.1 km/h 10.3 km/h 68 % 0 mm
02:25 -9.7 °C -13 °C 34198.6 hPa WSW 5.1 km/h 10.3 km/h 67 % 0 mm
02:35 -9.5 °C -13 °C 34198.6 hPa West 7.7 km/h 10.3 km/h 66 % 0 mm
02:45 -9.4 °C -13.1 °C 34198.6 hPa West 7.7 km/h 23.3 km/h 65 % 0 mm
02:55 -9.3 °C -12.9 °C 34198.6 hPa West 12.9 km/h 12.9 km/h 65 % 0 mm
03:05 -9.3 °C -13.1 °C 34222.3 hPa West 7.7 km/h 20.8 km/h 64 % 0 mm
03:15 -9.3 °C -13.1 °C 34222.3 hPa West 7.7 km/h 7.7 km/h 64 % 0 mm
03:25 -9.2 °C -12.9 °C 34222.3 hPa WSW 7.7 km/h 10.3 km/h 64 % 0 mm
03:35 -8.9 °C -12.7 °C 34222.3 hPa WNW 5.1 km/h 7.7 km/h 64 % 0 mm
03:45 -8.9 °C -12.8 °C 34222.3 hPa WNW 7.7 km/h 20.8 km/h 63 % 0 mm
03:55 -8.8 °C -12.8 °C 34256.2 hPa West 12.9 km/h 15.6 km/h 62 % 0 mm
04:05 -8.4 °C -12.5 °C 34256.2 hPa West 7.7 km/h 10.3 km/h 62 % 0 mm
04:15 -8.3 °C -12.5 °C 34256.2 hPa WSW 7.7 km/h 10.3 km/h 61 % 0 mm
04:25 -8.1 °C -12.6 °C 34256.2 hPa SW 7.7 km/h 12.9 km/h 59 % 0 mm
04:45 -8.2 °C -13.4 °C 34256.2 hPa West 7.7 km/h 15.6 km/h 54 % 0 mm
04:55 -8.2 °C -13.6 °C 34256.2 hPa WSW 15.6 km/h 18.2 km/h 53 % 0 mm
05:05 -8.1 °C -13.6 °C 34256.2 hPa WSW 15.6 km/h 28.5 km/h 52 % 0 mm
05:15 -7.8 °C -13.5 °C 34256.2 hPa West 12.9 km/h 28.5 km/h 51 % 0 mm
05:25 -7.6 °C -13.5 °C 34256.2 hPa West 15.6 km/h 25.9 km/h 50 % 0 mm
05:35 -7.3 °C -13.2 °C 34293.4 hPa West 12.9 km/h 20.8 km/h 50 % 0 mm
05:45 -7 °C -13.1 °C 34293.4 hPa West 7.7 km/h 15.6 km/h 49 % 0 mm
05:55 -6.8 °C -13.1 °C 34293.4 hPa WSW 12.9 km/h 15.6 km/h 48 % 0 mm
06:05 -6.6 °C -13.1 °C 34293.4 hPa West 5.1 km/h 25.9 km/h 47 % 0 mm
11:10 -6.6 °C -13.4 °C 34293.4 hPa NW 15.3 km/h 15.3 km/h 45 % 0 mm
11:15 -6.6 °C -13.7 °C 34327.3 hPa WSW 17.9 km/h 17.9 km/h 44 % 0 mm
11:20 -6.4 °C -13.5 °C 34327.3 hPa WNW 15 km/h 15 km/h 44 % 0 mm
11:25 -6.4 °C -13.6 °C 34327.3 hPa SSW 17.9 km/h 17.9 km/h 43 % 0 mm
11:31 -6.3 °C -13.7 °C 34293.4 hPa WSW 15 km/h 15 km/h 42 % 0 mm
11:36 -6.2 °C -13.4 °C 34293.4 hPa WSW 15 km/h 15 km/h 43 % 0 mm
11:41 -6.2 °C -13.6 °C 34327.3 hPa West 15 km/h 15 km/h 42 % 0 mm
11:46 -5.8 °C -13.3 °C 34327.3 hPa WNW 19.6 km/h 19.6 km/h 42 % 0 mm
11:51 -6 °C -13.7 °C 34327.3 hPa SW 24.3 km/h 24.3 km/h 41 % 0 mm
11:56 -6 °C -13.8 °C 34327.3 hPa SW 16.6 km/h 16.6 km/h 40 % 0 mm
12:01 -5.8 °C -13.4 °C 34327.3 hPa ENE 11.9 km/h 11.9 km/h 41 % 0 mm
12:06 -5.8 °C -13.7 °C 34327.3 hPa WSW 32.8 km/h 32.8 km/h 40 % 0 mm
12:11 -5.7 °C -13.6 °C 34327.3 hPa NW 20.9 km/h 20.9 km/h 40 % 0 mm
12:16 -5.6 °C -13.5 °C 34327.3 hPa SSW 17.9 km/h 17.9 km/h 40 % 0 mm
12:21 -5.7 °C -13.6 °C 34327.3 hPa East 15 km/h 15 km/h 40 % 0 mm
12:26 -5.6 °C -13.4 °C 34327.3 hPa NW 20.9 km/h 20.9 km/h 40 % 0 mm
12:31 -5.6 °C -13.7 °C 34327.3 hPa WSW 17.9 km/h 18.3 km/h 39 % 0 mm
12:36 -5.6 °C -13.7 °C 34327.3 hPa West 22.5 km/h 22.5 km/h 39 % 0 mm
12:41 -5.6 °C -13.7 °C 34327.3 hPa West 20.9 km/h 20.9 km/h 39 % 0 mm
12:46 -5.5 °C -13.6 °C 34327.3 hPa WNW 23.8 km/h 23.8 km/h 39 % 0 mm
12:51 -5.5 °C -13.6 °C 34327.3 hPa West 23.8 km/h 23.8 km/h 39 % 0 mm
12:56 -5.5 °C -13.8 °C 34293.4 hPa West 32.8 km/h 32.8 km/h 38 % 0 mm
13:01 -5.4 °C -13.8 °C 34293.4 hPa WSW 22 km/h 22 km/h 38 % 0 mm
13:06 -5.3 °C -13.7 °C 34293.4 hPa NNW 29 km/h 29 km/h 38 % 0 mm
13:11 -5.6 °C -14.3 °C 34327.3 hPa WNW 20.9 km/h 20.9 km/h 36 % 0 mm
13:16 -5.5 °C -14.1 °C 34327.3 hPa SW 25.9 km/h 25.9 km/h 37 % 0 mm
13:21 -5.4 °C -14 °C 34327.3 hPa WSW 20.9 km/h 20.9 km/h 37 % 0 mm
13:26 -5.4 °C -13.9 °C 34327.3 hPa WSW 26.9 km/h 26.9 km/h 37 % 0 mm
13:31 -5.3 °C -13.8 °C 34327.3 hPa SW 15.6 km/h 15.6 km/h 37 % 0 mm
13:36 -5 °C -13.8 °C 34327.3 hPa West 20.9 km/h 20.9 km/h 36 % 0 mm
13:41 -5.1 °C -13.7 °C 34327.3 hPa SW 17.9 km/h 17.9 km/h 37 % 0 mm
13:46 -4.8 °C -13.7 °C 34327.3 hPa West 15 km/h 15 km/h 36 % 0 mm
13:51 -4.8 °C -13.6 °C 34327.3 hPa WNW 26.9 km/h 26.9 km/h 36 % 0 mm
13:56 -4.8 °C -13.8 °C 34327.3 hPa WSW 23.8 km/h 23.8 km/h 35 % 0 mm
14:01 -4.7 °C -13.8 °C 34327.3 hPa WSW 20.9 km/h 20.9 km/h 35 % 0 mm
14:06 -4.7 °C -13.8 °C 34327.3 hPa South 20.9 km/h 20.9 km/h 35 % 0 mm
14:11 -4.6 °C -13.9 °C 34327.3 hPa WSW 20.9 km/h 20.9 km/h 34 % 0 mm
14:16 -4.7 °C -14 °C 34327.3 hPa WSW 25.4 km/h 25.4 km/h 34 % 0 mm
14:21 -4.5 °C -13.6 °C 34327.3 hPa WNW 20.9 km/h 20.9 km/h 35 % 0 mm
14:26 -4.7 °C -14.2 °C 34293.4 hPa WSW 32.8 km/h 32.8 km/h 33 % 0 mm
14:31 -4.3 °C -13.7 °C 34293.4 hPa WSW 15 km/h 15 km/h 34 % 0 mm
14:36 -4.4 °C -14 °C 34293.4 hPa West 20.9 km/h 20.9 km/h 33 % 0 mm
14:41 -4.6 °C -14.1 °C 34327.3 hPa WSW 29.8 km/h 29.8 km/h 33 % 0 mm
14:46 -4.4 °C -14.2 °C 34327.3 hPa WSW 26.9 km/h 26.9 km/h 32 % 0 mm
14:51 -4.2 °C -13.8 °C 34327.3 hPa West 15 km/h 15 km/h 33 % 0 mm
14:56 -4.1 °C -13.9 °C 34327.3 hPa WSW 26.9 km/h 26.9 km/h 32 % 0 mm
15:01 -4.1 °C -14 °C 34327.3 hPa West 27.2 km/h 27.2 km/h 32 % 0 mm
15:06 -4.1 °C -13.9 °C 34327.3 hPa WSW 27.2 km/h 27.2 km/h 32 % 0 mm
15:11 -4.2 °C -14.3 °C 34327.3 hPa West 20.9 km/h 20.9 km/h 31 % 0 mm
15:16 -4.1 °C -13.9 °C 34327.3 hPa WSW 23.8 km/h 23.8 km/h 32 % 0 mm
15:21 -4 °C -13.9 °C 34327.3 hPa West 20.9 km/h 20.9 km/h 32 % 0 mm
15:22 -3.9 °C -13.8 °C 34327.3 hPa WSW 20.9 km/h 20.9 km/h 32 % 0 mm
15:27 -4 °C -14.2 °C 34327.3 hPa WSW 26.9 km/h 26.9 km/h 31 % 0 mm
15:32 -4.1 °C -14.5 °C 34327.3 hPa WSW 20.9 km/h 20.9 km/h 30 % 0 mm
15:37 -4.1 °C -14.5 °C 34327.3 hPa SW 17.9 km/h 17.9 km/h 30 % 0 mm
15:42 -3.9 °C -14.1 °C 34327.3 hPa SW 17.9 km/h 17.9 km/h 31 % 0 mm
15:47 -3.7 °C -14.1 °C 34327.3 hPa West 19.6 km/h 19.6 km/h 30 % 0 mm
15:52 -3.8 °C -14.5 °C 34327.3 hPa WSW 20.9 km/h 20.9 km/h 29 % 0 mm
15:57 -3.8 °C -14.6 °C 34327.3 hPa West 20.9 km/h 20.9 km/h 29 % 0 mm
16:02 -3.8 °C -14.5 °C 34327.3 hPa WSW 17.9 km/h 17.9 km/h 29 % 0 mm
16:07 -3.5 °C -14.3 °C 34327.3 hPa WSW 15 km/h 15 km/h 29 % 0 mm
16:12 -3.7 °C -14.4 °C 34361.1 hPa West 20.9 km/h 20.9 km/h 29 % 0 mm
16:14 -3.7 °C -14.4 °C 34361.1 hPa SW 15 km/h 15 km/h 29 % 0 mm
16:19 -3.6 °C -14.3 °C 34361.1 hPa SW 23.8 km/h 23.8 km/h 29 % 0 mm
16:24 -3.7 °C -14.7 °C 34361.1 hPa WSW 18.3 km/h 18.3 km/h 28 % 0 mm
16:29 -3.7 °C -14.7 °C 34361.1 hPa SW 17.9 km/h 17.9 km/h 28 % 0 mm
16:34 -3.8 °C -14.8 °C 34361.1 hPa West 41.7 km/h 41.7 km/h 28 % 0 mm
16:39 -3.7 °C -15.1 °C 34361.1 hPa West 26.9 km/h 26.9 km/h 27 % 0 mm
16:44 -3.8 °C -15.1 °C 34361.1 hPa WNW 17.9 km/h 17.9 km/h 27 % 0 mm
16:49 -3.9 °C -14.9 °C 34361.1 hPa West 20.9 km/h 20.9 km/h 28 % 0 mm
16:54 -3.7 °C -14.9 °C 34361.1 hPa WNW 9 km/h 9.3 km/h 27 % 0 mm
16:59 -3.6 °C -14.9 °C 34361.1 hPa WSW 17.9 km/h 17.9 km/h 27 % 0 mm
17:04 -3.7 °C -15.3 °C 34361.1 hPa SW 23.8 km/h 23.8 km/h 26 % 0 mm
17:09 -3.7 °C -15.3 °C 34361.1 hPa West 17.9 km/h 17.9 km/h 26 % 0 mm
17:14 -3.6 °C -15.2 °C 34361.1 hPa SSW 15 km/h 15 km/h 26 % 0 mm
17:19 -3.6 °C -15.5 °C 34361.1 hPa WSW 29.8 km/h 29.8 km/h 25 % 0 mm
17:24 -3.6 °C -15.5 °C 34361.1 hPa WSW 15 km/h 15 km/h 25 % 0 mm
17:29 -3.5 °C -15.2 °C 34327.3 hPa SW 15 km/h 15 km/h 26 % 0 mm
17:34 -3.6 °C -15.6 °C 34327.3 hPa WSW 15 km/h 15 km/h 25 % 0 mm
17:39 -3.4 °C -15.4 °C 34327.3 hPa WSW 15 km/h 15 km/h 25 % 0 mm
17:44 -3.6 °C -15.8 °C 34361.1 hPa West 23.8 km/h 23.8 km/h 24 % 0 mm
17:50 -3.6 °C -16.2 °C 34361.1 hPa WSW 12.9 km/h 31.1 km/h 23 % 0 mm
17:55 -3.6 °C -15.8 °C 34361.1 hPa WSW 7.7 km/h 18.2 km/h 24 % 0 mm
18:00 -3.6 °C -15.8 °C 34361.1 hPa WNW 17.9 km/h 17.9 km/h 24 % 0 mm
18:05 -3.7 °C -16.3 °C 34361.1 hPa WSW 29.8 km/h 29.8 km/h 23 % 0 mm
18:10 -3.8 °C -16.4 °C 34361.1 hPa NNW 20.9 km/h 20.9 km/h 23 % 0 mm
18:15 -3.8 °C -16.4 °C 34361.1 hPa West 17.9 km/h 17.9 km/h 23 % 0 mm
18:20 -3.9 °C -16.8 °C 34361.1 hPa West 18.2 km/h 25.9 km/h 22 % 0 mm
18:25 -3.7 °C -16.3 °C 34361.1 hPa NNW 11.9 km/h 11.9 km/h 23 % 0 mm
18:30 -3.8 °C -16.3 °C 34361.1 hPa West 18.3 km/h 18.3 km/h 23 % 0 mm
18:35 -3.8 °C -16.4 °C 34361.1 hPa West 26.9 km/h 26.9 km/h 23 % 0 mm
18:40 -3.9 °C -16.5 °C 34361.1 hPa SW 11.9 km/h 15.3 km/h 23 % 0 mm
18:45 -3.9 °C -16.4 °C 34361.1 hPa West 9 km/h 9 km/h 23 % 0 mm
18:50 -3.9 °C -15.8 °C 34361.1 hPa NNW 15.3 km/h 15.3 km/h 25 % 0 mm
18:55 -4 °C -16.2 °C 34361.1 hPa SW 23.8 km/h 23.8 km/h 24 % 0 mm
19:00 -4.2 °C -16.7 °C 34395 hPa WSW 12.9 km/h 25.9 km/h 23 % 0 mm
19:05 -4.3 °C -17.1 °C 34395 hPa SW 20.9 km/h 20.9 km/h 22 % 0 mm
19:10 -4.3 °C -16.8 °C 34395 hPa SSW 15 km/h 15 km/h 23 % 0 mm
19:15 -4.3 °C -16.8 °C 34395 hPa WSW 15 km/h 15 km/h 23 % 0 mm
19:20 -4.3 °C -16.8 °C 34395 hPa West 15 km/h 15 km/h 23 % 0 mm
19:25 -4.4 °C -16.6 °C 34395 hPa WSW 7.7 km/h 18.2 km/h 24 % 0 mm
19:30 -4.6 °C -16.7 °C 34395 hPa West 15.6 km/h 15.6 km/h 24 % 0 mm
19:35 -4.7 °C -16.8 °C 34395 hPa SW 11.9 km/h 11.9 km/h 24 % 0 mm
19:40 -4.7 °C -16.8 °C 34395 hPa SW 15 km/h 15 km/h 24 % 0 mm
19:45 -4.8 °C -17.2 °C 34361.1 hPa WSW 11.9 km/h 11.9 km/h 23 % 0 mm
19:50 -4.9 °C -16.9 °C 34361.1 hPa West 5.1 km/h 7.7 km/h 24 % 0 mm
19:55 -4.9 °C -17 °C 34361.1 hPa WSW 2.6 km/h 7.7 km/h 24 % 0 mm
20:00 -5.1 °C -17.1 °C 34395 hPa SSW 2.6 km/h 10.3 km/h 24 % 0 mm
20:05 -6.2 °C -15.8 °C 34395 hPa ESE 20.8 km/h 31.1 km/h 32 % 0 mm
20:10 -6.6 °C -15.4 °C 34395 hPa ESE 12.9 km/h 31.1 km/h 35 % 0 mm
20:15 -6.9 °C -14.7 °C 34428.8 hPa NNE 29.8 km/h 29.8 km/h 40 % 0 mm
20:20 -7.2 °C -14.3 °C 34428.8 hPa NE 29.8 km/h 29.8 km/h 43 % 0 mm
20:25 -7.3 °C -13.9 °C 34428.8 hPa ENE 32.8 km/h 32.8 km/h 46 % 0 mm
20:30 -7.4 °C -13.8 °C 34462.7 hPa East 23.8 km/h 23.8 km/h 47 % 0 mm
20:35 -7.6 °C -13.6 °C 34462.7 hPa East 20.9 km/h 20.9 km/h 49 % 0 mm
20:40 -7.7 °C -13.7 °C 34462.7 hPa East 12.9 km/h 31.1 km/h 49 % 0 mm
20:45 -7.8 °C -13.7 °C 34462.7 hPa ENE 15 km/h 15 km/h 50 % 0 mm
20:50 -7.9 °C -13.8 °C 34462.7 hPa East 11.9 km/h 11.9 km/h 50 % 0 mm
20:55 -8.1 °C -13.8 °C 34462.7 hPa ENE 19.6 km/h 19.6 km/h 51 % 0 mm
21:00 -8.1 °C -13.8 °C 34462.7 hPa ENE 18.2 km/h 28.5 km/h 51 % 0 mm
21:05 -8.2 °C -13.9 °C 34462.7 hPa East 12.9 km/h 25.9 km/h 51 % 0 mm
21:10 -8.3 °C -13.8 °C 34462.7 hPa East 20.9 km/h 20.9 km/h 52 % 0 mm
21:15 -8.3 °C -13.8 °C 34462.7 hPa NNE 20.9 km/h 20.9 km/h 52 % 0 mm
21:20 -8.4 °C -13.7 °C 34462.7 hPa East 17.9 km/h 17.9 km/h 53 % 0 mm
21:25 -8.5 °C -13.7 °C 34462.7 hPa ESE 15 km/h 15 km/h 54 % 0 mm
21:30 -8.6 °C -13.8 °C 34462.7 hPa North 11.9 km/h 11.9 km/h 54 % 0 mm
21:35 -8.6 °C -13.8 °C 34462.7 hPa NNE 7.7 km/h 12.9 km/h 54 % 0 mm
21:40 -8.6 °C -13.8 °C 34462.7 hPa East 15.3 km/h 15.3 km/h 54 % 0 mm
21:45 -8.7 °C -13.9 °C 34496.6 hPa NNE 19.6 km/h 19.6 km/h 54 % 0 mm
21:50 -8.7 °C -13.8 °C 34496.6 hPa NE 12.9 km/h 20.8 km/h 55 % 0 mm
21:55 -8.8 °C -13.7 °C 34496.6 hPa ENE 15.6 km/h 15.6 km/h 56 % 0 mm
22:00 -8.8 °C -13.7 °C 34496.6 hPa ENE 7.7 km/h 15.6 km/h 56 % 0 mm
22:05 -8.9 °C -13.8 °C 34496.6 hPa NNE 15 km/h 15 km/h 56 % 0 mm
22:10 -8.9 °C -13.8 °C 34496.6 hPa ENE 12.2 km/h 12.2 km/h 56 % 0 mm
22:15 -8.9 °C -13.6 °C 34496.6 hPa NE 15 km/h 15 km/h 57 % 0 mm
22:20 -8.9 °C -13.7 °C 34496.6 hPa ENE 11.9 km/h 11.9 km/h 57 % 0 mm
22:25 -9.1 °C -13.7 °C 34496.6 hPa ENE 15 km/h 15 km/h 58 % 0 mm
22:30 -9.1 °C -13.7 °C 34496.6 hPa ENE 5.1 km/h 15.6 km/h 58 % 0 mm
22:35 -9.1 °C -13.7 °C 34496.6 hPa NE 11.9 km/h 11.9 km/h 58 % 0 mm
22:40 -9.2 °C -13.6 °C 34496.6 hPa NNE 9 km/h 9 km/h 59 % 0 mm
22:45 -9.2 °C -13.7 °C 34496.6 hPa East 8 km/h 8 km/h 59 % 0 mm
22:50 -9.2 °C -13.7 °C 34496.6 hPa ENE 5.1 km/h 7.7 km/h 59 % 0 mm
22:55 -9.2 °C -13.7 °C 34496.6 hPa ENE 5.1 km/h 12.9 km/h 59 % 0 mm
23:00 -9.2 °C -13.7 °C 34533.8 hPa SE 6 km/h 6 km/h 59 % 0 mm
23:05 -9.3 °C -13.7 °C 34533.8 hPa East 2.6 km/h 7.7 km/h 59 % 0 mm
23:10 -9.3 °C -13.6 °C 34533.8 hPa NE 9 km/h 9 km/h 60 % 0 mm
23:15 -9.3 °C -13.5 °C 34533.8 hPa East 11.9 km/h 11.9 km/h 61 % 0 mm
23:20 -9.3 °C -13.4 °C 34533.8 hPa ESE 6.8 km/h 6.8 km/h 62 % 0 mm
23:25 -9.4 °C -13.6 °C 34533.8 hPa East 9 km/h 9 km/h 61 % 0 mm
23:30 -9.4 °C -13.6 °C 34533.8 hPa East 6.3 km/h 6.3 km/h 61 % 0 mm
23:35 -11.2 °C -14.4 °C 34533.8 hPa North 2.6 km/h 5.1 km/h 68 % 0 mm
23:36 -9.5 °C -13.7 °C 34533.8 hPa NNE 6 km/h 6 km/h 61 % 0 mm
23:41 -9.6 °C -13.7 °C 34496.6 hPa ENE 7.6 km/h 7.6 km/h 61 % 0 mm
23:45 -11.3 °C -14.4 °C 34533.8 hPa Calm   2.6 km/h 68 % 0 mm
23:46 -9.6 °C -13.7 °C 34496.6 hPa ENE 11.9 km/h 11.9 km/h 61 % 0 mm
23:51 -9.6 °C -13.7 °C 34496.6 hPa ENE 6 km/h 6 km/h 61 % 0 mm
23:55 -11.3 °C -14.4 °C 34496.6 hPa Calm   2.6 km/h 69 % 0 mm
23:56 -9.6 °C -13.6 °C 34533.8 hPa NE 9 km/h 9 km/h 62 % 0 mm
Meteo Sesrovires
Elogis d' Weather Underground - 4 mb

Guio original per  Jim McMurry - jmcmurry@mwt.net Adaptat per a la plantilla per  Wim van der Kuil - Leuven-Template.eu

Trobareu la nostra informacio del temps tambe a:

Weather Underground

AWEKAS